Terminal Aerodrome Forecast
Issued by NWS

Home | Current Version | Previous Version | Text Only | Print | Product List | Glossary On
Versions: 1 2 3 4 5 6 7 8 9 10 11
000
FTUS45 KRIW 251700 RRA
TAFLND
TAF
KLND 251742Z 2518/2618 03012KT 1/4SM SN FZFG VV007
     FM260000 35006KT 1SM -SN OVC010
     FM260400 34006KT 2SM -SN OVC011
     FM260900 31005KT 5SM -SN OVC020
     FM261200 31004KT P6SM VCSH OVC035
     FM261500 33006KT P6SM BKN035=

USA.gov is the U.S. government's official web portal to all federal, state and local government web resources and services.